Time;durP1;ratioP1;P1;durP2;ratioP2;P2;SDS_P1;SDS_P2;PMS_P1;PMS_P2;Temp;Humidity;BMP_temperature;BMP_pressure;BME280_temperature;BME280_humidity;BME280_pressure;Samples;Min_cycle;Max_cycle;Signal;HPM_P1;HPM_P2
2021/12/31 00:00:54;;;;;;;2.78;2.22;;;20.20;99.90;;;;;;4180688;28;20273;-77
2021/12/31 00:02:56;;;;;;;4.47;2.08;;;20.20;99.90;;;;;;4180772;28;20660;-77
2021/12/31 00:04:58;;;;;;;4.55;2.65;;;20.20;99.90;;;;;;4180568;28;20722;-78
2021/12/31 00:07:01;;;;;;;3.88;2.28;;;20.20;99.90;;;;;;4180606;28;20281;-78
2021/12/31 00:09:04;;;;;;;3.97;2.00;;;20.20;99.90;;;;;;4180583;28;20216;-78
2021/12/31 00:11:07;;;;;;;4.05;2.20;;;20.20;99.90;;;;;;4180448;28;20266;-77
2021/12/31 00:13:10;;;;;;;5.20;2.20;;;20.20;99.90;;;;;;4180659;28;20219;-77
2021/12/31 00:15:13;;;;;;;3.92;2.15;;;20.10;99.90;;;;;;4180628;28;20220;-77
2021/12/31 00:17:15;;;;;;;4.25;2.60;;;20.20;99.90;;;;;;4180556;28;20212;-77
2021/12/31 00:19:17;;;;;;;4.20;2.42;;;20.10;99.90;;;;;;4180215;28;20220;-77
2021/12/31 00:21:20;;;;;;;3.55;2.10;;;20.20;99.90;;;;;;4180578;28;20219;-77
2021/12/31 00:23:25;;;;;;;3.20;2.03;;;20.10;99.90;;;;;;4180399;28;20220;-77
2021/12/31 00:25:28;;;;;;;3.53;2.05;;;20.10;99.90;;;;;;4180185;28;20235;-77
2021/12/31 00:27:32;;;;;;;2.75;2.15;;;20.10;99.90;;;;;;4180473;28;20253;-77
2021/12/31 00:29:34;;;;;;;3.85;2.00;;;20.10;99.90;;;;;;4180345;28;20224;-77
2021/12/31 00:31:37;;;;;;;4.05;2.20;;;20.10;99.90;;;;;;4180250;28;20262;-77
2021/12/31 00:33:39;;;;;;;3.80;2.40;;;20.10;99.90;;;;;;4179939;28;20235;-77
2021/12/31 00:35:41;;;;;;;3.83;2.20;;;20.10;99.90;;;;;;4180090;28;20261;-78
2021/12/31 00:37:44;;;;;;;2.95;1.98;;;20.10;99.90;;;;;;4180200;28;20722;-77
2021/12/31 00:39:47;;;;;;;3.58;2.00;;;20.10;99.90;;;;;;4180231;28;20668;-77
2021/12/31 00:41:49;;;;;;;3.72;2.15;;;20.10;99.90;;;;;;4180460;28;20216;-77
2021/12/31 00:43:53;;;;;;;2.75;1.83;;;20.10;99.90;;;;;;4179999;28;20220;-77
2021/12/31 00:45:57;;;;;;;4.53;2.28;;;20.10;99.90;;;;;;4179860;28;20231;-78
2021/12/31 00:47:59;;;;;;;4.55;1.90;;;20.10;99.90;;;;;;4179934;28;20222;-77
2021/12/31 00:50:01;;;;;;;2.67;1.85;;;20.10;99.90;;;;;;4179894;28;20676;-77
2021/12/31 00:52:04;;;;;;;3.80;1.98;;;20.10;99.90;;;;;;4179964;28;20223;-76
2021/12/31 00:54:07;;;;;;;3.67;2.28;;;20.10;99.90;;;;;;4179841;28;20261;-77
2021/12/31 00:56:09;;;;;;;3.30;2.10;;;20.10;99.90;;;;;;4180242;28;20722;-76
2021/12/31 00:58:12;;;;;;;3.22;1.90;;;20.10;99.90;;;;;;4180066;28;20224;-76
2021/12/31 01:00:17;;;;;;;2.83;1.92;;;20.00;99.90;;;;;;4180155;28;20215;-76
2021/12/31 01:02:21;;;;;;;3.58;2.10;;;20.10;99.90;;;;;;4179978;28;20693;-76
2021/12/31 01:04:23;;;;;;;4.55;1.83;;;20.10;99.90;;;;;;4172194;28;20220;-76
2021/12/31 01:06:26;;;;;;;2.97;1.92;;;20.00;99.90;;;;;;4196034;28;20706;-76
2021/12/31 01:08:28;;;;;;;4.90;2.10;;;20.00;99.90;;;;;;4199919;28;20272;-76
2021/12/31 01:10:30;;;;;;;3.50;1.92;;;20.00;99.90;;;;;;4199630;28;20211;-77
2021/12/31 01:12:33;;;;;;;3.65;1.95;;;20.00;99.90;;;;;;4199405;28;20223;-76
2021/12/31 01:14:38;;;;;;;4.35;1.98;;;20.00;99.90;;;;;;4199589;28;20273;-76
2021/12/31 01:16:48;;;;;;;2.78;1.88;;;20.00;99.90;;;;;;4190480;28;20250;-76
2021/12/31 01:21:10;;;;;;;3.65;1.80;;;20.00;99.90;;;;;;4183223;28;20184;-76
2021/12/31 01:23:15;;;;;;;3.58;2.08;;;20.00;99.90;;;;;;4182834;28;20266;-76
2021/12/31 01:25:17;;;;;;;4.03;1.95;;;20.00;99.90;;;;;;4183261;28;20242;-76
2021/12/31 01:27:20;;;;;;;4.70;2.20;;;20.00;99.90;;;;;;4183273;28;20258;-76
2021/12/31 01:29:22;;;;;;;3.75;2.08;;;20.00;99.90;;;;;;4183037;28;20282;-76
2021/12/31 01:31:24;;;;;;;4.70;1.70;;;20.00;99.90;;;;;;4182915;28;20615;-76
2021/12/31 01:33:28;;;;;;;3.40;1.63;;;20.00;99.90;;;;;;4182343;28;20700;-76
2021/12/31 01:35:30;;;;;;;5.30;2.28;;;20.00;99.90;;;;;;4182639;28;20730;-76
2021/12/31 01:37:33;;;;;;;3.25;1.90;;;20.00;99.90;;;;;;4182723;28;20220;-76
2021/12/31 01:39:35;;;;;;;3.63;2.00;;;19.90;99.90;;;;;;4183225;28;20224;-76
2021/12/31 01:41:37;;;;;;;3.45;1.80;;;19.90;99.90;;;;;;4182878;28;20589;-77
2021/12/31 01:43:40;;;;;;;4.78;2.28;;;19.90;99.90;;;;;;4182725;28;20672;-76
2021/12/31 01:45:47;;;;;;;3.28;2.17;;;19.90;99.90;;;;;;4182962;28;20731;-76
2021/12/31 01:48:06;;;;;;;3.05;1.85;;;19.90;99.90;;;;;;4182186;28;20216;-76
2021/12/31 01:50:10;;;;;;;3.42;1.83;;;19.90;99.90;;;;;;4181681;28;20266;-76
2021/12/31 01:52:12;;;;;;;4.20;1.95;;;19.90;99.90;;;;;;4182644;28;20285;-76
2021/12/31 01:54:15;;;;;;;3.05;2.10;;;19.90;99.90;;;;;;4182554;28;20223;-76
2021/12/31 01:56:20;;;;;;;3.25;1.88;;;19.90;99.90;;;;;;4182231;28;20269;-76
2021/12/31 01:58:24;;;;;;;4.13;2.00;;;19.90;99.90;;;;;;4182097;28;20277;-76
2021/12/31 02:00:26;;;;;;;2.42;1.70;;;19.90;99.90;;;;;;4182018;28;20661;-76
2021/12/31 02:02:29;;;;;;;4.30;2.05;;;19.90;99.90;;;;;;4182203;28;20257;-76
2021/12/31 02:04:31;;;;;;;2.88;1.60;;;19.90;99.90;;;;;;4182301;28;20216;-76
2021/12/31 02:06:35;;;;;;;4.03;2.05;;;19.90;99.90;;;;;;4181792;28;20239;-76
2021/12/31 02:08:37;;;;;;;2.10;1.60;;;19.80;99.90;;;;;;4182120;28;20262;-76
2021/12/31 02:10:40;;;;;;;4.43;2.40;;;19.90;99.90;;;;;;4182331;28;20216;-76
2021/12/31 02:12:46;;;;;;;3.70;1.80;;;19.80;99.90;;;;;;4181747;28;20273;-76
2021/12/31 02:14:50;;;;;;;3.13;1.67;;;19.80;99.90;;;;;;4181947;28;20677;-76
2021/12/31 02:16:52;;;;;;;5.22;2.00;;;19.80;99.90;;;;;;4182049;28;20208;-76
2021/12/31 02:18:55;;;;;;;2.90;1.88;;;19.80;99.90;;;;;;4182194;28;20269;-76
2021/12/31 02:20:59;;;;;;;3.13;1.80;;;19.80;99.90;;;;;;4182337;28;20672;-76
2021/12/31 02:23:06;;;;;;;2.40;1.77;;;19.80;99.90;;;;;;4182152;28;20624;-76
2021/12/31 02:25:09;;;;;;;3.75;1.80;;;19.80;99.90;;;;;;4181849;28;20261;-76
2021/12/31 02:27:11;;;;;;;3.97;1.75;;;19.80;99.90;;;;;;4182300;28;20231;-76
2021/12/31 02:29:14;;;;;;;2.50;1.60;;;19.80;99.90;;;;;;4182260;28;20219;-76
2021/12/31 02:31:16;;;;;;;5.03;2.08;;;19.80;99.90;;;;;;4182366;28;20281;-76
2021/12/31 02:33:18;;;;;;;2.85;1.65;;;19.80;99.90;;;;;;4181195;28;20771;-76
2021/12/31 02:35:21;;;;;;;4.43;2.10;;;19.80;99.90;;;;;;4181751;28;20219;-76
2021/12/31 02:37:24;;;;;;;3.78;2.10;;;19.80;99.90;;;;;;4181781;28;20215;-76
2021/12/31 02:39:27;;;;;;;5.38;2.13;;;19.80;99.90;;;;;;4181958;28;20219;-76
2021/12/31 02:41:29;;;;;;;3.60;1.63;;;19.80;99.90;;;;;;4182236;28;20212;-76
2021/12/31 02:43:31;;;;;;;4.82;1.88;;;19.70;99.90;;;;;;4181961;28;20216;-76
2021/12/31 02:45:36;;;;;;;3.63;1.80;;;19.80;99.90;;;;;;4181760;28;20224;-76
2021/12/31 02:47:43;;;;;;;3.40;2.10;;;19.80;99.90;;;;;;4181593;28;20278;-76
2021/12/31 02:49:48;;;;;;;3.53;1.80;;;19.80;99.90;;;;;;4181714;28;20216;-76
2021/12/31 02:51:50;;;;;;;3.03;1.83;;;19.70;99.90;;;;;;4174420;28;20251;-77
2021/12/31 02:53:56;;;;;;;3.13;1.85;;;19.80;99.90;;;;;;4180954;28;20207;-76
2021/12/31 02:56:07;;;;;;;3.70;1.80;;;19.70;99.90;;;;;;4181752;28;20665;-76
2021/12/31 02:58:09;;;;;;;3.28;2.05;;;19.70;99.90;;;;;;4181011;28;20211;-76
2021/12/31 03:00:13;;;;;;;4.03;1.75;;;19.70;99.90;;;;;;4181899;28;20614;-76
2021/12/31 03:02:23;;;;;;;3.60;2.10;;;19.70;99.90;;;;;;4181204;28;20265;-76
2021/12/31 03:04:26;;;;;;;3.60;1.88;;;19.70;99.90;;;;;;4181754;28;20203;-76
2021/12/31 03:06:29;;;;;;;3.22;1.73;;;19.70;99.90;;;;;;4181392;28;20257;-76
2021/12/31 03:08:36;;;;;;;3.75;1.48;;;19.70;99.90;;;;;;4181161;28;20269;-76
2021/12/31 03:10:40;;;;;;;4.78;1.92;;;19.70;99.90;;;;;;4181020;28;20216;-76
2021/12/31 03:12:47;;;;;;;3.13;1.80;;;19.70;99.90;;;;;;4181104;28;20265;-76
2021/12/31 03:15:01;;;;;;;4.13;1.45;;;19.70;99.90;;;;;;4180783;28;20212;-76
2021/12/31 03:17:04;;;;;;;3.00;1.88;;;19.70;99.90;;;;;;4181247;28;20211;-76
2021/12/31 03:19:07;;;;;;;3.35;1.70;;;19.70;99.90;;;;;;4180682;28;20265;-76
2021/12/31 03:21:20;;;;;;;2.70;1.70;;;19.70;99.90;;;;;;4180808;28;20212;-76
2021/12/31 03:23:23;;;;;;;3.53;2.08;;;19.70;99.90;;;;;;4180694;28;20273;-76
2021/12/31 03:25:25;;;;;;;3.63;1.58;;;19.70;99.90;;;;;;4180971;28;20664;-76
2021/12/31 03:27:32;;;;;;;4.70;1.98;;;19.70;99.90;;;;;;4180854;28;20273;-76
2021/12/31 03:29:34;;;;;;;4.53;2.00;;;19.70;99.90;;;;;;4181071;28;20227;-76
2021/12/31 03:31:36;;;;;;;4.72;1.77;;;19.60;99.90;;;;;;4180799;28;20273;-76
2021/12/31 03:33:39;;;;;;;2.63;1.67;;;19.60;99.90;;;;;;4180272;28;20289;-76
2021/12/31 03:35:42;;;;;;;4.22;2.13;;;19.60;99.90;;;;;;4180740;28;20215;-76
2021/12/31 03:37:44;;;;;;;2.70;1.77;;;19.60;99.90;;;;;;4180963;28;20219;-76
2021/12/31 03:39:49;;;;;;;3.53;1.92;;;19.60;99.90;;;;;;4180783;28;20216;-76
2021/12/31 03:41:51;;;;;;;2.35;1.80;;;19.60;99.90;;;;;;4180696;28;20220;-76
2021/12/31 03:43:55;;;;;;;3.67;1.98;;;19.60;99.90;;;;;;4180928;28;20211;-76
2021/12/31 03:45:57;;;;;;;3.83;1.70;;;19.60;99.90;;;;;;4181045;28;20245;-76
2021/12/31 03:48:00;;;;;;;3.13;1.77;;;19.60;99.90;;;;;;4180795;28;20232;-76
2021/12/31 03:50:02;;;;;;;3.05;1.55;;;19.60;99.90;;;;;;4180605;28;20216;-76
2021/12/31 03:52:05;;;;;;;2.90;1.88;;;19.60;99.90;;;;;;4180685;28;20246;-76
2021/12/31 03:54:07;;;;;;;2.75;1.80;;;19.60;99.90;;;;;;4180663;28;20273;-76
2021/12/31 03:56:09;;;;;;;4.85;1.88;;;19.50;99.90;;;;;;4180615;28;20220;-76
2021/12/31 03:58:12;;;;;;;5.05;1.83;;;19.60;99.90;;;;;;4180944;28;20231;-76
2021/12/31 04:00:17;;;;;;;3.70;1.70;;;19.50;99.90;;;;;;4180599;28;20273;-76
2021/12/31 04:02:19;;;;;;;3.53;1.75;;;19.50;99.90;;;;;;4180759;28;20243;-76
2021/12/31 04:04:21;;;;;;;5.57;2.30;;;19.50;99.90;;;;;;4180772;28;20212;-76
2021/12/31 04:06:24;;;;;;;2.60;1.52;;;19.50;99.90;;;;;;4180565;28;20605;-76
2021/12/31 04:08:26;;;;;;;3.97;1.90;;;19.50;99.90;;;;;;4179961;28;20240;-76
2021/12/31 04:10:29;;;;;;;3.63;1.73;;;19.50;99.90;;;;;;4180413;28;20212;-76
2021/12/31 04:12:31;;;;;;;3.00;1.55;;;19.50;99.90;;;;;;4180703;28;20285;-76
2021/12/31 04:14:33;;;;;;;4.28;1.73;;;19.50;99.90;;;;;;4180740;28;20215;-76
2021/12/31 04:16:37;;;;;;;3.60;1.70;;;19.50;99.90;;;;;;4180168;28;20211;-76
2021/12/31 04:18:39;;;;;;;2.78;1.48;;;19.50;99.90;;;;;;4180300;28;20215;-76
2021/12/31 04:20:44;;;;;;;4.07;1.70;;;19.50;99.90;;;;;;4180632;28;20215;-76
2021/12/31 04:22:52;;;;;;;2.58;1.60;;;19.50;99.90;;;;;;4180271;28;20261;-76
2021/12/31 04:24:55;;;;;;;2.38;1.63;;;19.50;99.90;;;;;;4180564;28;20223;-76
2021/12/31 04:26:57;;;;;;;4.05;1.98;;;19.50;99.90;;;;;;4180765;28;20266;-76
2021/12/31 04:28:59;;;;;;;3.08;1.90;;;19.50;99.90;;;;;;4179966;28;20239;-76
2021/12/31 04:31:03;;;;;;;3.35;1.55;;;19.40;99.90;;;;;;4180279;28;20261;-76
2021/12/31 04:33:07;;;;;;;4.55;1.77;;;19.40;99.90;;;;;;4180363;28;20236;-76
2021/12/31 04:35:12;;;;;;;3.88;1.90;;;19.50;99.90;;;;;;4180477;28;20212;-76
2021/12/31 04:37:14;;;;;;;3.50;1.65;;;19.40;99.90;;;;;;4180372;28;20204;-76
2021/12/31 04:39:17;;;;;;;2.65;1.38;;;19.50;99.90;;;;;;4178476;28;20262;-76
2021/12/31 04:41:19;;;;;;;3.60;1.58;;;19.40;99.90;;;;;;4180928;28;20211;-77
2021/12/31 04:43:21;;;;;;;4.05;1.90;;;19.40;99.90;;;;;;4183912;28;20215;-76
2021/12/31 04:45:25;;;;;;;3.25;1.67;;;19.50;99.90;;;;;;4183706;28;20219;-76
2021/12/31 04:47:28;;;;;;;4.93;2.00;;;19.40;99.90;;;;;;4183551;28;20554;-76
2021/12/31 04:49:31;;;;;;;3.83;1.70;;;19.40;99.90;;;;;;4183653;28;20261;-76
2021/12/31 04:51:34;;;;;;;3.67;1.63;;;19.40;99.90;;;;;;4183449;28;20216;-76
2021/12/31 04:53:36;;;;;;;3.60;1.27;;;19.40;99.90;;;;;;4183350;28;20282;-76
2021/12/31 04:55:39;;;;;;;2.00;1.50;;;19.40;99.90;;;;;;4183428;28;20261;-76
2021/12/31 04:57:42;;;;;;;4.60;1.60;;;19.40;99.90;;;;;;4183585;28;20216;-76
2021/12/31 04:59:45;;;;;;;2.92;1.70;;;19.40;99.90;;;;;;4183755;28;20269;-76
2021/12/31 05:01:48;;;;;;;5.32;1.90;;;19.40;99.90;;;;;;4183519;28;20216;-76
2021/12/31 05:03:51;;;;;;;3.95;1.77;;;19.40;99.90;;;;;;4183017;28;20672;-76
2021/12/31 05:05:54;;;;;;;2.20;1.42;;;19.40;99.90;;;;;;4183567;28;20216;-76
2021/12/31 05:07:57;;;;;;;3.40;1.67;;;19.40;99.90;;;;;;4183220;28;20292;-76
2021/12/31 05:09:59;;;;;;;2.60;1.65;;;19.40;99.90;;;;;;4182868;28;20212;-76
2021/12/31 05:12:01;;;;;;;4.07;1.67;;;19.40;99.90;;;;;;4183218;28;20273;-76
2021/12/31 05:14:05;;;;;;;2.22;1.60;;;19.40;99.90;;;;;;4183348;28;20216;-76
2021/12/31 05:16:07;;;;;;;2.25;1.50;;;19.40;99.90;;;;;;4182734;28;20258;-76
2021/12/31 05:18:09;;;;;;;2.10;1.48;;;19.40;99.90;;;;;;4182909;28;20238;-76
2021/12/31 05:20:12;;;;;;;3.55;1.60;;;19.40;99.90;;;;;;4182981;28;20219;-76
2021/12/31 05:22:15;;;;;;;3.03;1.73;;;19.30;99.90;;;;;;4183225;28;20220;-76
2021/12/31 05:24:18;;;;;;;2.47;1.60;;;19.40;99.90;;;;;;4183054;28;20220;-76
2021/12/31 05:26:20;;;;;;;2.35;1.50;;;19.30;99.90;;;;;;4182954;28;20215;-76
2021/12/31 05:28:22;;;;;;;2.53;1.65;;;19.30;99.90;;;;;;4182832;28;20278;-76
2021/12/31 05:30:26;;;;;;;3.63;1.60;;;19.30;99.90;;;;;;4182771;28;20216;-76
2021/12/31 05:32:28;;;;;;;2.78;1.50;;;19.30;99.90;;;;;;4182817;28;20601;-76
2021/12/31 05:34:30;;;;;;;3.50;1.80;;;19.30;99.90;;;;;;4182680;28;20653;-76
2021/12/31 05:36:32;;;;;;;2.20;1.85;;;19.30;99.90;;;;;;4183061;28;20223;-76
2021/12/31 05:38:36;;;;;;;2.28;1.60;;;19.30;99.90;;;;;;4183244;28;20265;-76
2021/12/31 05:40:38;;;;;;;2.30;1.60;;;19.30;99.90;;;;;;4182715;28;20281;-76
2021/12/31 05:42:41;;;;;;;3.38;1.63;;;19.30;99.90;;;;;;4183030;28;20212;-76
2021/12/31 05:44:44;;;;;;;3.33;1.67;;;19.30;99.90;;;;;;4182617;28;20605;-76
2021/12/31 05:46:49;;;;;;;2.42;1.58;;;19.30;99.90;;;;;;4182804;28;20265;-76
2021/12/31 05:48:51;;;;;;;4.28;1.77;;;19.30;99.90;;;;;;4182820;28;20236;-76
2021/12/31 05:50:54;;;;;;;2.03;1.40;;;19.30;99.90;;;;;;4182120;28;20265;-76
2021/12/31 05:52:59;;;;;;;2.10;1.45;;;19.30;99.90;;;;;;4182606;28;20216;-76
2021/12/31 05:55:05;;;;;;;2.38;1.55;;;19.30;99.90;;;;;;4183019;28;20215;-76
2021/12/31 05:57:07;;;;;;;2.60;1.58;;;19.20;99.90;;;;;;4182744;28;20216;-76
2021/12/31 05:59:12;;;;;;;3.03;1.50;;;19.20;99.90;;;;;;4182075;28;20208;-76
2021/12/31 06:01:14;;;;;;;3.58;1.60;;;19.30;99.90;;;;;;4182450;28;20221;-75
2021/12/31 06:03:17;;;;;;;3.05;1.25;;;19.20;99.90;;;;;;4182643;28;20220;-76
2021/12/31 06:05:19;;;;;;;3.60;1.60;;;19.30;99.90;;;;;;4182095;28;20257;-76
2021/12/31 06:07:22;;;;;;;3.05;1.80;;;19.30;99.90;;;;;;4182639;28;20219;-76
2021/12/31 06:09:24;;;;;;;2.67;1.67;;;19.30;99.90;;;;;;4182299;28;20236;-76
2021/12/31 06:11:28;;;;;;;3.60;1.85;;;19.30;99.90;;;;;;4182470;28;20216;-76
2021/12/31 06:13:31;;;;;;;2.75;1.63;;;19.40;99.90;;;;;;4182357;28;20285;-76
2021/12/31 06:15:34;;;;;;;2.53;1.60;;;19.40;99.90;;;;;;4181158;28;20265;-75
2021/12/31 06:17:37;;;;;;;3.13;1.40;;;19.40;99.90;;;;;;4165715;28;20228;-76
2021/12/31 06:19:41;;;;;;;2.78;1.52;;;19.40;99.90;;;;;;4165618;28;20669;-76
2021/12/31 06:21:44;;;;;;;3.63;1.63;;;19.40;99.90;;;;;;4165446;28;20270;-76
2021/12/31 06:23:47;;;;;;;4.07;1.60;;;19.50;99.90;;;;;;4165987;28;20224;-76
2021/12/31 06:25:49;;;;;;;2.45;1.48;;;19.50;99.90;;;;;;4165529;28;20329;-76
2021/12/31 06:27:53;;;;;;;2.10;1.48;;;19.50;99.90;;;;;;4166886;28;20333;-76
2021/12/31 06:29:55;;;;;;;4.63;1.80;;;19.50;99.90;;;;;;4174899;28;20626;-76
2021/12/31 06:31:58;;;;;;;3.33;1.60;;;19.50;99.90;;;;;;4181459;28;20220;-76
2021/12/31 06:34:00;;;;;;;3.53;2.03;;;19.50;99.90;;;;;;4170321;28;20267;-76
2021/12/31 06:36:02;;;;;;;3.72;1.70;;;19.50;99.90;;;;;;4165245;28;20217;-76
2021/12/31 06:38:06;;;;;;;3.45;1.50;;;19.60;99.90;;;;;;4165478;28;20216;-76
2021/12/31 06:40:11;;;;;;;3.67;1.52;;;19.60;99.90;;;;;;4165050;28;20259;-76
2021/12/31 06:42:13;;;;;;;4.28;1.50;;;19.60;99.90;;;;;;4165266;28;20216;-76
2021/12/31 06:44:17;;;;;;;2.28;1.38;;;19.60;99.90;;;;;;4164848;28;20677;-76
2021/12/31 06:46:20;;;;;;;2.40;1.30;;;19.60;99.90;;;;;;4164646;28;20212;-76
2021/12/31 06:48:22;;;;;;;2.53;1.55;;;19.60;99.90;;;;;;4165081;28;20265;-76
2021/12/31 06:50:24;;;;;;;3.35;1.40;;;19.60;99.90;;;;;;4165057;28;20262;-76
2021/12/31 06:52:27;;;;;;;2.85;1.33;;;19.60;99.90;;;;;;4164778;28;20274;-76
2021/12/31 06:54:29;;;;;;;2.42;1.42;;;19.60;99.90;;;;;;4165196;28;20216;-76
2021/12/31 06:56:32;;;;;;;2.05;1.30;;;19.60;99.90;;;;;;4164799;28;20220;-76
2021/12/31 06:58:38;;;;;;;1.58;1.20;;;19.70;99.90;;;;;;4164744;28;20217;-76
2021/12/31 07:00:42;;;;;;;1.77;1.20;;;19.70;99.90;;;;;;4164532;28;20275;-76
2021/12/31 07:02:44;;;;;;;3.55;1.50;;;19.70;99.90;;;;;;4164153;28;20242;-76
2021/12/31 07:04:46;;;;;;;2.55;1.35;;;19.70;99.90;;;;;;4164634;28;20216;-76
2021/12/31 07:06:49;;;;;;;1.95;1.33;;;19.70;99.90;;;;;;4165042;28;20208;-75
2021/12/31 07:08:51;;;;;;;1.55;1.20;;;19.70;99.90;;;;;;4164366;28;20222;-76
2021/12/31 07:10:53;;;;;;;1.40;1.23;;;19.70;99.90;;;;;;4164446;28;20225;-76
2021/12/31 07:12:59;;;;;;;1.50;1.30;;;19.80;99.90;;;;;;4164378;28;20742;-76
2021/12/31 07:15:02;;;;;;;1.55;1.35;;;19.70;99.90;;;;;;4164615;28;20216;-76
2021/12/31 07:17:05;;;;;;;2.17;1.25;;;19.80;99.90;;;;;;4164304;28;20602;-76
2021/12/31 07:19:08;;;;;;;2.72;1.38;;;19.80;99.90;;;;;;4164713;28;20216;-76
2021/12/31 07:21:10;;;;;;;2.38;1.40;;;19.80;99.90;;;;;;4164795;28;20266;-76
2021/12/31 07:23:16;;;;;;;2.53;1.30;;;19.80;99.90;;;;;;4164518;28;20243;-76
2021/12/31 07:25:18;;;;;;;1.30;1.08;;;19.80;99.90;;;;;;4164190;28;20266;-76
2021/12/31 07:27:20;;;;;;;2.47;1.15;;;19.80;99.90;;;;;;4164566;28;20221;-76
2021/12/31 07:29:22;;;;;;;2.85;1.10;;;19.80;99.90;;;;;;4164057;28;20306;-76
2021/12/31 07:31:25;;;;;;;2.55;1.50;;;19.80;99.90;;;;;;4164348;28;20282;-76
2021/12/31 07:33:28;;;;;;;2.13;1.13;;;19.80;99.90;;;;;;4171179;28;20243;-76
2021/12/31 07:35:31;;;;;;;2.03;1.20;;;19.90;99.90;;;;;;4181100;28;20211;-76
2021/12/31 07:37:34;;;;;;;2.20;1.13;;;19.90;99.90;;;;;;4180927;28;20665;-76
2021/12/31 07:39:45;;;;;;;3.05;1.35;;;19.90;99.90;;;;;;4180409;28;20216;-76
2021/12/31 07:41:47;;;;;;;2.10;1.30;;;19.80;99.90;;;;;;4181213;28;20215;-76
2021/12/31 07:43:49;;;;;;;3.92;1.60;;;19.90;99.90;;;;;;4180980;28;20220;-76
2021/12/31 07:45:53;;;;;;;2.83;1.35;;;19.90;99.90;;;;;;4180511;28;20261;-76
2021/12/31 07:47:55;;;;;;;3.13;1.48;;;19.90;99.90;;;;;;4180681;28;20219;-76
2021/12/31 07:49:58;;;;;;;2.53;1.30;;;19.90;99.90;;;;;;4180607;28;20236;-76
2021/12/31 07:52:01;;;;;;;1.52;1.08;;;19.90;99.90;;;;;;4181058;28;20606;-76
2021/12/31 07:54:03;;;;;;;1.80;1.10;;;19.90;99.90;;;;;;4180831;28;20220;-75
2021/12/31 07:56:06;;;;;;;2.15;1.33;;;19.90;99.90;;;;;;4180819;28;20211;-76
2021/12/31 07:58:10;;;;;;;2.63;1.50;;;19.90;99.90;;;;;;4180883;28;20227;-76
2021/12/31 08:00:16;;;;;;;1.70;1.15;;;19.90;99.90;;;;;;4180799;28;20270;-76
2021/12/31 08:02:18;;;;;;;2.38;1.20;;;19.90;99.90;;;;;;4180773;28;20223;-76
2021/12/31 08:04:20;;;;;;;2.60;1.30;;;20.00;99.90;;;;;;4180666;28;20615;-76
2021/12/31 08:06:24;;;;;;;2.42;1.10;;;20.00;99.90;;;;;;4180748;28;20726;-76
2021/12/31 08:08:26;;;;;;;1.98;1.20;;;20.00;99.90;;;;;;4180421;28;20231;-75
2021/12/31 08:10:29;;;;;;;3.00;1.30;;;20.00;99.90;;;;;;4180858;28;20223;-76
2021/12/31 08:12:34;;;;;;;1.42;1.05;;;20.00;99.90;;;;;;4180258;28;20216;-76
2021/12/31 08:14:36;;;;;;;2.25;1.55;;;20.00;99.90;;;;;;4179876;28;20681;-76
2021/12/31 08:16:38;;;;;;;1.90;1.25;;;20.00;99.90;;;;;;4175814;28;20595;-76
2021/12/31 08:18:40;;;;;;;1.55;1.13;;;20.10;99.90;;;;;;4175980;28;20204;-76
2021/12/31 08:20:43;;;;;;;3.35;1.30;;;20.10;99.90;;;;;;4180144;28;20262;-76
2021/12/31 08:22:46;;;;;;;1.52;1.33;;;20.00;99.90;;;;;;4180534;28;20219;-76
2021/12/31 08:24:49;;;;;;;2.03;1.40;;;20.10;99.90;;;;;;4180239;28;20603;-76
2021/12/31 08:26:51;;;;;;;2.10;1.02;;;20.10;99.90;;;;;;4180686;28;20262;-76
2021/12/31 08:28:55;;;;;;;1.45;1.15;;;20.10;99.90;;;;;;4180372;28;20216;-76
2021/12/31 08:30:58;;;;;;;2.05;1.30;;;20.10;99.90;;;;;;4180338;28;20977;-76
2021/12/31 08:33:02;;;;;;;2.20;1.40;;;20.10;99.90;;;;;;4176906;28;20299;-76
2021/12/31 08:35:05;;;;;;;2.30;1.13;;;20.10;99.90;;;;;;4163901;28;20220;-76
2021/12/31 08:37:07;;;;;;;2.13;1.05;;;20.10;99.90;;;;;;4164023;28;20813;-76
2021/12/31 08:39:11;;;;;;;1.35;1.00;;;20.10;99.90;;;;;;4163708;28;20216;-76
2021/12/31 08:41:14;;;;;;;1.55;1.15;;;20.10;99.90;;;;;;4163908;28;20262;-76
2021/12/31 08:43:16;;;;;;;2.20;1.33;;;20.10;99.90;;;;;;4163754;28;20247;-76
2021/12/31 08:45:19;;;;;;;2.13;1.20;;;20.10;99.90;;;;;;4163790;28;20712;-76
2021/12/31 08:47:22;;;;;;;1.98;1.00;;;20.10;99.90;;;;;;4163625;28;20270;-76
2021/12/31 08:49:24;;;;;;;1.73;1.00;;;20.10;99.90;;;;;;4163636;28;20631;-76
2021/12/31 08:51:27;;;;;;;2.85;1.33;;;20.20;99.90;;;;;;4163779;28;20240;-76
2021/12/31 08:53:30;;;;;;;1.52;0.90;;;20.20;99.90;;;;;;4163417;28;20220;-76
2021/12/31 08:55:33;;;;;;;2.63;1.05;;;20.20;99.90;;;;;;4163609;28;20216;-76
2021/12/31 08:57:36;;;;;;;1.98;1.20;;;20.20;99.90;;;;;;4163804;28;20614;-76
2021/12/31 08:59:38;;;;;;;1.90;1.20;;;20.20;99.90;;;;;;4163682;28;20740;-76
2021/12/31 09:01:40;;;;;;;3.00;1.15;;;20.20;99.90;;;;;;4163679;28;20681;-76
2021/12/31 09:03:43;;;;;;;2.10;1.20;;;20.20;99.90;;;;;;4163850;28;20220;-76
2021/12/31 09:05:45;;;;;;;2.13;1.10;;;20.20;99.90;;;;;;4163612;28;20617;-76
2021/12/31 09:07:47;;;;;;;2.75;1.20;;;20.20;99.90;;;;;;4163322;28;20551;-76
2021/12/31 09:09:49;;;;;;;2.08;1.20;;;20.20;99.90;;;;;;4163320;28;20609;-76
2021/12/31 09:11:54;;;;;;;1.80;1.20;;;20.20;99.90;;;;;;4163239;28;20216;-76
2021/12/31 09:13:57;;;;;;;1.70;1.10;;;20.20;99.90;;;;;;4163363;28;20259;-76
2021/12/31 09:16:00;;;;;;;1.55;1.17;;;20.30;99.90;;;;;;4163178;28;20365;-76
2021/12/31 09:18:02;;;;;;;2.00;1.30;;;20.30;99.90;;;;;;4163309;28;20220;-76
2021/12/31 09:20:05;;;;;;;2.45;1.20;;;20.30;99.90;;;;;;4163416;28;20278;-76
2021/12/31 09:22:09;;;;;;;1.88;1.13;;;20.30;99.90;;;;;;4163349;28;20557;-76
2021/12/31 09:24:11;;;;;;;1.48;1.10;;;20.30;99.90;;;;;;4163315;28;20263;-76
2021/12/31 09:26:15;;;;;;;2.15;1.20;;;20.30;99.90;;;;;;4164223;28;20217;-76
2021/12/31 09:28:18;;;;;;;2.60;1.30;;;20.30;99.90;;;;;;4166011;28;20267;-76
2021/12/31 09:30:21;;;;;;;2.13;1.33;;;20.30;99.90;;;;;;4165875;28;20254;-76
2021/12/31 09:32:23;;;;;;;1.45;1.00;;;20.30;99.90;;;;;;4166478;28;20216;-76
2021/12/31 09:34:26;;;;;;;1.75;1.25;;;20.30;99.90;;;;;;4180472;28;20240;-76
2021/12/31 09:36:30;;;;;;;1.30;1.10;;;20.30;99.90;;;;;;4182740;28;20215;-76
2021/12/31 09:38:32;;;;;;;2.30;1.02;;;20.30;99.90;;;;;;4182579;28;20357;-76
2021/12/31 09:40:35;;;;;;;2.28;1.30;;;20.30;99.90;;;;;;4182493;28;20211;-76
2021/12/31 09:42:38;;;;;;;3.22;1.30;;;20.30;99.90;;;;;;4182700;28;20266;-76
2021/12/31 09:44:46;;;;;;;2.90;1.05;;;20.30;99.90;;;;;;4182992;28;20982;-76
2021/12/31 09:46:49;;;;;;;1.60;0.90;;;20.40;99.90;;;;;;4182651;28;20269;-76
2021/12/31 09:48:51;;;;;;;2.97;1.20;;;20.30;99.90;;;;;;4183148;28;20265;-76
2021/12/31 09:50:56;;;;;;;1.98;1.25;;;20.40;99.90;;;;;;4182428;28;20243;-76
2021/12/31 09:52:59;;;;;;;1.80;1.27;;;20.40;99.90;;;;;;4182285;28;20215;-76
2021/12/31 09:55:01;;;;;;;2.03;1.30;;;20.40;99.90;;;;;;4182774;28;20227;-76
2021/12/31 09:57:04;;;;;;;1.88;1.10;;;20.40;99.90;;;;;;4182409;28;20278;-76
2021/12/31 09:59:09;;;;;;;1.77;1.00;;;20.40;99.90;;;;;;4182590;28;20220;-76
2021/12/31 10:01:14;;;;;;;1.80;1.25;;;20.40;99.90;;;;;;4182456;28;20215;-76
2021/12/31 10:03:18;;;;;;;1.35;1.10;;;20.40;99.90;;;;;;4182224;28;20273;-76
2021/12/31 10:05:20;;;;;;;0.82;0.75;;;20.40;99.90;;;;;;4176493;28;20215;-76
2021/12/31 10:07:24;;;;;;;1.85;1.23;;;20.40;99.90;;;;;;4180621;28;20262;-76
2021/12/31 10:09:26;;;;;;;2.30;1.00;;;20.50;99.90;;;;;;4182127;28;20688;-76
2021/12/31 10:11:29;;;;;;;3.35;1.33;;;20.50;99.90;;;;;;4182362;28;20290;-76
2021/12/31 10:13:31;;;;;;;2.50;1.30;;;20.50;99.90;;;;;;4182011;28;20303;-76
2021/12/31 10:15:39;;;;;;;1.38;0.80;;;20.50;99.90;;;;;;4182244;28;20270;-76
2021/12/31 10:17:42;;;;;;;1.38;1.08;;;20.50;99.90;;;;;;4165771;28;20243;-76
2021/12/31 10:19:57;;;;;;;2.47;1.20;;;20.50;99.90;;;;;;4165788;28;20212;-76
2021/12/31 10:22:00;;;;;;;2.58;1.30;;;20.50;99.90;;;;;;4165537;28;20212;-76
2021/12/31 10:24:22;;;;;;;1.73;1.10;;;20.60;99.90;;;;;;4165628;28;20259;-76
2021/12/31 10:26:31;;;;;;;2.50;1.17;;;20.50;99.90;;;;;;4165761;28;20263;-76
2021/12/31 10:28:34;;;;;;;2.03;1.30;;;20.60;99.90;;;;;;4165554;28;20286;-76
2021/12/31 10:30:37;;;;;;;1.55;1.08;;;20.60;99.90;;;;;;4165554;28;20259;-76
2021/12/31 10:32:41;;;;;;;2.55;1.20;;;20.60;99.90;;;;;;4165564;28;20220;-76
2021/12/31 10:34:45;;;;;;;2.17;1.00;;;20.50;99.90;;;;;;4149570;28;20248;-76
2021/12/31 10:36:47;;;;;;;1.50;1.10;;;20.60;99.90;;;;;;4148447;28;20268;-76
2021/12/31 10:38:49;;;;;;;1.92;1.38;;;20.60;99.90;;;;;;4149741;28;20268;-76
2021/12/31 10:40:53;;;;;;;4.72;2.55;;;20.60;99.90;;;;;;4164034;28;20282;-76
2021/12/31 10:43:15;;;;;;;3.53;1.90;;;20.40;99.90;;;;;;4155184;28;20209;-76
2021/12/31 10:45:17;;;;;;;3.45;2.00;;;20.40;99.90;;;;;;4148958;28;20666;-76